Stations météo

réclame
Mon MeteoGroup
Zugspitze, Allemagne (10961): Température de l'air & dewpoint: 17.11.2017 12:00:00 - 23.11.2017 12:00:00 (CET)Zugspitze, Allemagne (10961): Vitesse du vent & gusts: 17.11.2017 12:00:00 - 23.11.2017 12:00:00 (CET)Zugspitze, Allemagne (10961): Direction du vent: 17.11.2017 12:00:00 - 23.11.2017 12:00:00 (CET)Zugspitze, Allemagne (10961): visibility: 17.11.2017 12:00:00 - 23.11.2017 12:00:00 (CET)Zugspitze, Allemagne (10961): Ensoleillement: 17.11.2017 12:00:00 - 23.11.2017 12:00:00 (CET)
Date & Time tt [°C] td [°C] ff [km/h] ff [knt] fx [km/h] fx [knt] dd vv [km] sd [min]
23.11.2017 12:00:00 -3,2 -14,2 23 12 44 24 NW 82 60
23.11.2017 11:00:00 0,1 -19,4 5 3 23 12 NW 82 60
23.11.2017 10:00:00 0,4 -20,0 13 7 36 19 W 82 60
23.11.2017 09:00:00 1,0 -19,2 23 12 38 20 SW 82 60
23.11.2017 08:00:00 0,2 -19,6 29 16 43 23 S 82 3
23.11.2017 07:00:00 0,6 -19,3 29 16 41 22 SSW 82 0
23.11.2017 06:00:00 0,0 -18,8 27 15 61 33 SW 82 0
23.11.2017 05:00:00 0,8 -19,8 47 26 59 32 WSW - 0
23.11.2017 04:00:00 0,9 -19,4 44 24 59 32 SSW - 0
23.11.2017 03:00:00 0,6 -18,9 44 24 55 30 SSW - 0
23.11.2017 02:00:00 0,6 -19,5 39 21 49 27 SSW - 0
23.11.2017 01:00:00 0,5 -20,0 34 18 47 25 SSW - 0
23.11.2017 00:00:00 0,2 -20,0 32 18 50 27 SSW - 0
22.11.2017 23:00:00 -0,1 -19,9 35 19 51 28 S - 0
22.11.2017 22:00:00 -0,2 -21,1 32 17 45 24 SW - 0
22.11.2017 21:00:00 -0,1 -22,1 37 20 56 31 WSW 82 0
22.11.2017 20:00:00 -1,0 -18,3 42 23 55 30 WSW 82 0
22.11.2017 19:00:00 -0,8 -19,4 43 23 55 30 WSW 82 0
22.11.2017 18:00:00 -1,7 -18,0 43 23 64 35 WSW 82 0
22.11.2017 17:00:00 -1,8 -17,9 50 27 60 32 W 82 31
22.11.2017 16:00:00 -1,9 -16,9 48 26 62 34 W 82 60
22.11.2017 15:00:00 -2,0 -16,7 36 19 57 31 W 82 60
22.11.2017 14:00:00 -1,7 -15,1 41 22 64 34 W 82 60
22.11.2017 13:00:00 -1,9 -16,7 45 25 77 41 W 82 60
22.11.2017 12:00:00 -2,4 -15,0 54 29 82 45 W 82 60
22.11.2017 11:00:00 -3,1 -13,5 61 33 80 43 WSW 82 60
22.11.2017 10:00:00 -3,5 -13,8 60 33 82 44 W 82 60
22.11.2017 09:00:00 -3,7 -13,8 63 34 88 47 W 82 32
22.11.2017 08:00:00 -4,5 -12,6 66 36 90 48 W 82 3
22.11.2017 07:00:00 -4,0 -13,0 68 37 91 49 W 82 0
22.11.2017 06:00:00 -4,5 -12,1 60 32 89 48 W 80 0
22.11.2017 05:00:00 -4,5 -12,2 55 30 86 47 W - 0
22.11.2017 04:00:00 -5,0 -11,1 61 33 88 47 W - 0
22.11.2017 03:00:00 -5,1 -10,8 54 29 80 43 W - 0
22.11.2017 02:00:00 -5,6 -10,1 40 22 78 42 W - 0
22.11.2017 01:00:00 -5,5 -9,4 39 21 84 45 WNW - 0
22.11.2017 00:00:00 -5,9 -9,3 48 26 84 46 W - 0
21.11.2017 23:00:00 -5,9 -9,0 54 29 103 56 W - 0
21.11.2017 22:00:00 -6,2 -8,7 81 44 106 57 W - 0
21.11.2017 21:00:00 -5,4 -6,5 68 37 95 51 W 80 0
21.11.2017 20:00:00 -4,9 -5,6 52 28 76 41 W 40 0
21.11.2017 19:00:00 -5,5 -6,5 39 21 70 38 WNW 40 0
21.11.2017 18:00:00 -4,0 -4,5 39 21 63 34 NNW 0,1 0
21.11.2017 17:00:00 -3,4 -3,8 39 21 67 36 NNW 0,1 0
21.11.2017 16:00:00 -3,2 -3,4 40 22 66 35 N 0,1 0
21.11.2017 15:00:00 -3,4 -3,7 34 19 79 43 N 0,1 0
21.11.2017 14:00:00 -4,3 -4,7 46 25 89 48 NNW 0,1 0
21.11.2017 13:00:00 -4,4 -4,8 46 25 80 43 WNW 0,1 0
21.11.2017 12:00:00 -5,3 -5,8 43 23 73 40 W 0,1 0
21.11.2017 11:00:00 -4,8 -5,2 42 23 73 40 NNW 0,1 0
21.11.2017 10:00:00 -5,0 -5,5 45 24 77 42 N 0,1 0
21.11.2017 09:00:00 -5,5 -6,1 48 26 85 46 N 0,1 0
21.11.2017 08:00:00 -6,3 -7,0 54 29 88 48 N 0,1 0
21.11.2017 07:00:00 -6,2 -6,7 46 25 74 40 NNW 0,1 0
21.11.2017 06:00:00 -6,6 -7,3 57 31 93 50 N 0,1 0
21.11.2017 05:00:00 -6,2 -6,8 54 29 95 51 NW - 0
21.11.2017 04:00:00 -7,0 -7,5 46 25 83 45 W - 0
21.11.2017 03:00:00 -6,2 -6,8 48 26 82 44 WNW - 0
21.11.2017 02:00:00 -7,3 -8,0 40 22 66 36 NNW - 0
21.11.2017 01:00:00 -7,0 -7,7 44 24 96 52 WNW - 0
21.11.2017 00:00:00 -6,6 -7,3 56 30 89 48 WNW - 0
20.11.2017 23:00:00 -7,3 -8,1 54 29 112 61 W - 0
20.11.2017 22:00:00 -7,3 -8,1 50 27 94 51 W - 0
20.11.2017 21:00:00 -8,2 -9,1 47 25 82 44 W - 0
20.11.2017 20:00:00 -8,3 -9,3 53 28 96 52 WNW 0,1 0
20.11.2017 19:00:00 -8,5 -9,5 51 28 91 49 WNW 0,1 0
20.11.2017 18:00:00 -10,5 -11,9 58 31 95 51 W 0,1 0
20.11.2017 17:00:00 -12,0 -13,4 46 25 86 47 NW 0,1 0
20.11.2017 16:00:00 -9,7 -11,0 46 25 93 50 NNW 0,1 0
20.11.2017 15:00:00 -8,3 -9,4 48 26 89 48 N 0,1 0
20.11.2017 14:00:00 -12,2 -13,8 58 31 86 46 W 0,1 0
20.11.2017 13:00:00 -13,8 -15,3 37 20 71 38 WNW 10 0
20.11.2017 12:00:00 -13,0 -16,3 36 19 77 41 NW 10 0
20.11.2017 11:00:00 -12,1 -17,9 47 26 73 40 N 15 0
20.11.2017 10:00:00 -12,3 -21,2 43 23 76 41 WNW 50 0
20.11.2017 09:00:00 -13,0 -24,1 51 28 75 40 NNW 82 0
20.11.2017 08:00:00 -13,8 -24,6 44 24 74 40 NW 82 9
20.11.2017 07:00:00 -14,9 -22,8 49 27 75 41 NW 82 0
20.11.2017 06:00:00 -15,7 -19,2 41 22 69 37 WNW 82 0
20.11.2017 05:00:00 -15,5 -15,5 45 25 71 38 W - 0
20.11.2017 04:00:00 -15,2 -15,2 38 21 58 32 WNW - 0
20.11.2017 03:00:00 -14,9 -14,9 39 21 69 37 NNW - 0
20.11.2017 02:00:00 -14,9 -14,9 40 22 67 36 NW - 0
20.11.2017 01:00:00 -14,9 -14,9 39 21 63 34 NNW - 0
20.11.2017 00:00:00 -15,1 -15,1 32 18 63 34 NNW - 0
19.11.2017 23:00:00 -15,1 -15,3 40 22 71 38 NNW - 0
19.11.2017 22:00:00 -15,3 -15,9 45 24 72 39 NNW - 0
19.11.2017 21:00:00 -15,4 -16,3 28 15 59 32 NW 0,1 0
19.11.2017 20:00:00 -15,4 -16,5 34 18 54 29 NNW 0,1 0
19.11.2017 19:00:00 -15,4 -16,8 32 17 55 30 N 0,1 0
19.11.2017 18:00:00 -15,6 -17,2 35 19 57 31 NNW 0,1 0
19.11.2017 17:00:00 -15,3 -16,9 26 14 46 25 N 0,1 0
19.11.2017 16:00:00 -14,6 -16,3 30 16 57 31 N 0,1 0
19.11.2017 15:00:00 -14,3 -16,0 29 16 66 36 NNW 0,1 0
19.11.2017 14:00:00 -13,8 -15,6 29 16 67 36 NNW 0,1 0
19.11.2017 13:00:00 -13,5 -15,0 36 20 58 31 NNW 0,1 0
19.11.2017 12:00:00 -13,4 -15,0 31 17 61 33 NNW 0,1 0
19.11.2017 11:00:00 -12,6 -14,2 34 18 76 41 N 0,1 0
19.11.2017 10:00:00 -12,4 -14,0 42 23 85 46 NNW 0,1 0
19.11.2017 09:00:00 -11,5 -13,0 51 27 82 44 NNW 0,1 0
19.11.2017 08:00:00 -11,3 -12,8 51 28 83 45 NNW 0,1 0
19.11.2017 07:00:00 -11,6 -13,0 44 24 67 36 NNW 0,1 0
19.11.2017 06:00:00 -11,5 -13,0 46 25 63 34 NNW 0,1 0
19.11.2017 05:00:00 -11,0 -12,4 46 25 69 37 NNW - 0
19.11.2017 04:00:00 -10,3 -11,5 28 15 46 25 NNW - 0
19.11.2017 03:00:00 -10,2 -11,4 31 17 62 33 N - 0
19.11.2017 02:00:00 -12,8 -17,2 37 20 73 39 NNW - 0
19.11.2017 01:00:00 -12,3 -21,8 39 21 75 40 WNW - 0
19.11.2017 00:00:00 -11,5 -21,1 45 25 73 39 W - 0
18.11.2017 23:00:00 -11,4 -25,6 42 23 74 40 W - 0
18.11.2017 22:00:00 -11,8 -23,3 36 19 72 39 WNW - 0
18.11.2017 21:00:00 -11,6 -23,3 35 19 69 37 NW 82 0
18.11.2017 20:00:00 -11,4 -24,5 35 19 71 39 NW 82 0
18.11.2017 19:00:00 -11,1 -23,7 46 25 73 39 W 82 0
18.11.2017 18:00:00 -10,6 -23,6 45 24 66 36 W 82 0
18.11.2017 17:00:00 -10,2 -26,6 43 23 59 32 W 82 27
18.11.2017 16:00:00 -9,3 -31,3 30 16 48 26 NNW 82 60
18.11.2017 15:00:00 -9,6 -29,3 24 13 44 24 NW 82 60
18.11.2017 14:00:00 -10,2 -22,4 26 14 43 23 WNW 82 60
18.11.2017 13:00:00 -10,0 -23,6 20 11 36 20 W 82 60
18.11.2017 12:00:00 -9,9 -27,0 13 7 27 15 NW 82 60
18.11.2017 11:00:00 -9,5 -26,0 19 11 36 20 N 82 60
18.11.2017 10:00:00 -9,4 -27,8 25 13 45 24 N 82 60
18.11.2017 09:00:00 -8,8 -27,3 31 17 45 24 N 82 60
18.11.2017 08:00:00 -8,2 -27,8 26 14 38 21 N 82 22
18.11.2017 07:00:00 -11,4 -12,7 19 10 33 18 NNW 0,1 0
18.11.2017 06:00:00 -8,9 -27,6 25 14 36 20 NNW 50 0
18.11.2017 05:00:00 -11,0 -16,2 23 12 36 19 N - 0
18.11.2017 04:00:00 -10,0 -10,8 24 13 34 19 N - 0
18.11.2017 03:00:00 -9,7 -25,9 14 8 40 22 N - 0
18.11.2017 02:00:00 -9,7 -11,8 21 12 29 16 N - 0
18.11.2017 01:00:00 -9,1 -11,0 19 11 26 14 N - 0
18.11.2017 00:00:00 -8,9 -11,5 16 8 22 12 N - 0
17.11.2017 23:00:00 -8,7 -11,3 11 6 15 8 N - 0
17.11.2017 22:00:00 -8,5 -10,8 9 5 16 9 N - 0
17.11.2017 21:00:00 -8,4 -10,6 13 7 21 12 N 25 0
17.11.2017 20:00:00 -8,4 -10,6 13 7 23 13 N 15 0
17.11.2017 19:00:00 -8,0 -9,6 20 11 27 15 N 10 0
17.11.2017 18:00:00 -8,0 -9,4 17 9 23 12 N 10 0
17.11.2017 17:00:00 -7,7 -9,0 12 7 19 10 N 0,5 0
17.11.2017 16:00:00 -7,6 -8,8 13 7 19 10 N 0,2 0
17.11.2017 15:00:00 -7,0 -7,6 6 4 11 6 NNE 0,2 0
17.11.2017 14:00:00 -6,5 -6,9 6 3 19 10 NE 0,2 11
17.11.2017 13:00:00 -6,8 -7,7 13 7 22 12 N 0,1 1
17.11.2017 12:00:00 -6,9 -7,7 12 6 18 10 N 0,2 5

tt = Température de l'air
td = dewpoint
ff = Vitesse du vent
fx = gusts
dd = Direction du vent
vv = visibility
sd = Ensoleillement

stations d'obs. à proximité